Dubre, Kentucky
Current Conditions -  °F | °C
As of 1:55 PM on Friday 19 Dec 2014 (Local Time) from KGLW Reporting Station
Clear Clear  
Wind Chill:   Ceiling: Unl
Heat Index:   Visibility: 10mi
Dew Point: -4°   Wind: 0mph
Humidity: 62%   Direction: NA
Pressure: 30.25"   Gusts: NA
Location:  36.84°N, 85.53°W
Report Text: KGLW 191955Z AUTO 00000KT 10SM CLR 03/M04 A3025 RMK AO2 T00311036
Loading
Personal Weather Stations






























Interactive Weather Map New forecast layout! Learn more

10-Day Weather Forecast

Advertisements
Track Severe Weather on mobile